createdAt,value
2022-09-16T00:02:39.366Z,5.03
2022-09-16T00:07:43.274Z,5.57
2022-09-16T00:12:47.877Z,5.70
2022-09-16T00:17:51.430Z,5.90
2022-09-16T00:22:54.604Z,5.07
2022-09-16T00:27:59.215Z,5.63
2022-09-16T00:33:02.485Z,5.53
2022-09-16T00:38:05.605Z,6.10
2022-09-16T00:43:14.353Z,5.80
2022-09-16T00:48:22.586Z,6.17
2022-09-16T00:53:30.117Z,4.97
2022-09-16T00:58:40.464Z,5.47
2022-09-16T01:03:48.012Z,5.43
2022-09-16T01:08:51.615Z,6.27
2022-09-16T01:14:16.371Z,6.27
2022-09-16T01:19:38.868Z,5.80
2022-09-16T01:24:53.496Z,6.27
2022-09-16T01:30:21.229Z,4.70
2022-09-16T01:35:34.794Z,5.10
2022-09-16T01:40:48.973Z,5.87
2022-09-16T01:45:57.182Z,6.50
2022-09-16T01:51:07.108Z,5.50
2022-09-16T01:56:14.765Z,5.93
2022-09-16T02:01:24.231Z,6.33
2022-09-16T02:06:31.372Z,6.00
2022-09-16T02:11:35.556Z,6.23
2022-09-16T02:16:44.455Z,5.60
2022-09-16T02:21:50.847Z,6.40
2022-09-16T02:27:00.868Z,6.77
2022-09-16T02:32:07.206Z,5.13
2022-09-16T02:37:19.383Z,5.40
2022-09-16T02:42:22.619Z,4.40
2022-09-16T02:47:32.821Z,6.23
2022-09-16T02:52:42.359Z,6.00
2022-09-16T02:57:45.605Z,6.93
2022-09-16T03:02:48.863Z,6.00
2022-09-16T03:07:53.482Z,6.73
2022-09-16T03:13:04.858Z,5.77
2022-09-16T03:18:42.198Z,6.07
2022-09-16T03:23:57.439Z,6.97
2022-09-16T03:29:09.802Z,6.17
2022-09-16T03:34:19.014Z,6.57
2022-09-16T03:39:24.261Z,6.90
2022-09-16T03:44:33.382Z,8.60
2022-09-16T03:49:36.518Z,6.80
2022-09-16T03:54:41.243Z,6.20
2022-09-16T03:59:44.331Z,6.43
2022-09-16T04:04:47.631Z,6.60
2022-09-16T04:09:52.160Z,6.43
2022-09-16T04:14:55.357Z,7.53
2022-09-16T04:19:58.420Z,7.07
2022-09-16T04:25:02.900Z,6.17
2022-09-16T04:30:07.077Z,6.60
2022-09-16T04:35:10.780Z,6.53
2022-09-16T04:40:15.424Z,6.77
2022-09-16T04:45:19.013Z,6.40
2022-09-16T04:50:22.086Z,7.33
2022-09-16T04:55:26.579Z,7.00
2022-09-16T05:00:29.710Z,6.87
2022-09-16T05:05:33.057Z,7.03
2022-09-16T05:10:37.552Z,6.60
2022-09-16T05:15:40.676Z,7.50
2022-09-16T05:20:43.860Z,6.53
2022-09-16T05:25:48.262Z,6.73
2022-09-16T05:30:51.410Z,7.17
2022-09-16T05:35:54.527Z,6.90
2022-09-16T05:41:14.560Z,7.27
2022-09-16T05:46:19.975Z,7.93
2022-09-16T05:51:24.620Z,6.60
2022-09-16T05:56:31.354Z,6.83
2022-09-16T06:01:37.073Z,7.33
2022-09-16T06:06:41.447Z,7.70
2022-09-16T06:11:47.435Z,7.67
2022-09-16T06:16:50.787Z,7.13
2022-09-16T06:21:53.979Z,7.60
2022-09-16T06:26:58.393Z,10.97
2022-09-16T06:32:01.907Z,9.27
2022-09-16T06:37:05.260Z,8.83
2022-09-16T06:42:10.144Z,7.90
2022-09-16T06:47:13.197Z,7.60
2022-09-16T06:52:16.260Z,7.60
2022-09-16T06:57:23.076Z,7.17
2022-09-16T07:02:26.752Z,7.10
2022-09-16T07:07:32.052Z,7.47
2022-09-16T07:12:36.461Z,8.00
2022-09-16T07:17:39.986Z,7.67
2022-09-16T07:22:43.056Z,7.80
2022-09-16T07:27:47.700Z,6.70
2022-09-16T07:32:50.793Z,8.10
2022-09-16T07:37:53.874Z,8.13
2022-09-16T07:42:59.225Z,7.63
2022-09-16T07:48:02.528Z,7.80
2022-09-16T07:53:05.667Z,7.93
2022-09-16T07:58:10.099Z,7.90
2022-09-16T08:03:13.249Z,7.63
2022-09-16T08:08:16.392Z,8.17
2022-09-16T08:13:20.986Z,7.33
2022-09-16T08:18:24.108Z,7.37
2022-09-16T08:23:27.157Z,7.63
2022-09-16T08:28:40.060Z,7.17
2022-09-16T08:33:55.219Z,6.73
2022-09-16T08:38:58.495Z,5.97
2022-09-16T08:44:13.340Z,6.53
2022-09-16T08:49:22.694Z,6.40
2022-09-16T08:54:29.398Z,6.20
2022-09-16T08:59:38.218Z,6.53
2022-09-16T09:04:41.277Z,6.20
2022-09-16T09:10:00.614Z,5.60
2022-09-16T09:15:26.098Z,6.50
2022-09-16T09:20:41.057Z,6.07
2022-09-16T09:25:50.954Z,6.50
2022-09-16T09:31:08.651Z,5.37
2022-09-16T09:36:28.317Z,5.80
2022-09-16T09:41:35.579Z,5.77
2022-09-16T09:46:42.464Z,6.00
2022-09-16T09:51:51.747Z,5.50
2022-09-16T09:56:59.629Z,5.93
2022-09-16T10:02:04.296Z,5.23
2022-09-16T10:07:09.287Z,5.33
2022-09-16T10:12:12.348Z,3.60
2022-09-16T10:17:18.960Z,3.53
2022-09-16T10:22:25.365Z,3.53
2022-09-16T10:27:29.728Z,4.17
2022-09-16T10:32:40.585Z,3.50
2022-09-16T10:37:51.868Z,4.03
2022-09-16T10:42:58.477Z,2.50
2022-09-16T10:48:07.434Z,2.40
2022-09-16T10:53:24.363Z,2.70
2022-09-16T10:58:27.837Z,2.40
2022-09-16T11:03:51.245Z,2.47
2022-09-16T11:09:04.404Z,2.90
2022-09-16T11:14:14.681Z,2.70
2022-09-16T11:19:27.400Z,2.77
2022-09-16T11:24:57.393Z,2.87
2022-09-16T11:30:09.825Z,2.70
2022-09-16T11:35:41.229Z,2.23
2022-09-16T11:40:49.676Z,2.10
2022-09-16T11:45:59.485Z,1.97
2022-09-16T11:51:12.734Z,1.90
2022-09-16T11:56:20.749Z,2.03
2022-09-16T12:01:32.512Z,2.77
2022-09-16T12:06:44.128Z,4.37
2022-09-16T12:11:52.187Z,3.00
2022-09-16T12:17:00.169Z,3.20
2022-09-16T12:22:09.489Z,3.00
2022-09-16T12:27:23.365Z,2.90
2022-09-16T12:32:33.570Z,2.80
2022-09-16T12:37:41.412Z,2.60
2022-09-16T12:43:20.960Z,2.30
2022-09-16T12:48:59.363Z,3.17
2022-09-16T12:55:06.685Z,3.17
2022-09-16T13:00:18.287Z,3.10
2022-09-16T13:05:28.215Z,2.80
2022-09-16T13:16:03.985Z,3.30
2022-09-16T13:21:13.738Z,3.40
2022-09-16T13:26:17.025Z,2.90
2022-09-16T13:31:33.944Z,2.70
2022-09-16T13:36:37.469Z,2.77
2022-09-16T13:41:43.062Z,2.60
2022-09-16T13:46:47.577Z,2.70
2022-09-16T13:51:52.119Z,2.40
2022-09-16T13:57:17.394Z,2.20
2022-09-16T14:02:36.452Z,2.37
2022-09-16T14:07:47.776Z,2.37
2022-09-16T14:13:00.632Z,2.20
2022-09-16T14:18:05.592Z,2.40
2022-09-16T14:23:18.053Z,2.40
2022-09-16T14:28:22.693Z,4.70
2022-09-16T14:33:30.365Z,4.20
2022-09-16T14:38:46.794Z,2.50
2022-09-16T14:43:50.453Z,2.10
2022-09-16T14:48:55.175Z,2.30
2022-09-16T14:54:15.691Z,2.50
2022-09-16T14:59:19.254Z,2.50
2022-09-16T15:04:29.108Z,2.73
2022-09-16T15:09:43.409Z,2.60
2022-09-16T15:14:47.077Z,2.80
2022-09-16T15:19:55.882Z,2.50
2022-09-16T15:25:00.436Z,2.40
2022-09-16T15:30:05.914Z,2.67
2022-09-16T15:35:22.249Z,2.20
2022-09-16T15:40:32.687Z,2.60
2022-09-16T15:45:36.440Z,2.73
2022-09-16T15:50:45.900Z,2.80
2022-09-16T15:55:59.405Z,2.57
2022-09-16T16:01:05.673Z,2.73
2022-09-16T16:06:10.326Z,2.63
2022-09-16T16:11:15.124Z,2.80
2022-09-16T16:16:20.663Z,2.50
2022-09-16T16:21:25.220Z,2.17
2022-09-16T16:26:28.269Z,2.87
2022-09-16T16:31:32.675Z,2.73
2022-09-16T16:36:37.384Z,3.13
2022-09-16T16:41:40.492Z,3.00
2022-09-16T16:46:43.663Z,2.80
2022-09-16T16:51:49.620Z,3.23
2022-09-16T16:56:52.833Z,3.30
2022-09-16T17:01:57.509Z,3.20
2022-09-16T17:07:24.622Z,3.43
2022-09-16T17:12:25.349Z,3.40
2022-09-16T17:17:31.667Z,3.50
2022-09-16T17:22:36.432Z,3.40
2022-09-16T17:27:39.680Z,4.13
2022-09-16T17:32:42.856Z,4.63
2022-09-16T17:37:47.489Z,4.23
2022-09-16T17:42:52.792Z,3.70
2022-09-16T17:47:57.613Z,3.60
2022-09-16T17:53:02.150Z,3.20
2022-09-16T17:58:05.203Z,3.97
2022-09-16T18:03:08.708Z,4.67
2022-09-16T18:08:13.440Z,4.20
2022-09-16T18:13:16.508Z,4.10
2022-09-16T18:18:20.573Z,4.50
2022-09-16T18:23:25.033Z,4.20
2022-09-16T18:28:28.086Z,3.90
2022-09-16T18:33:31.341Z,4.13
2022-09-16T18:38:38.509Z,3.83
2022-09-16T18:43:45.934Z,4.17
2022-09-16T18:48:50.935Z,4.30
2022-09-16T18:53:57.883Z,4.50
2022-09-16T18:59:20.873Z,4.13
2022-09-16T19:04:27.700Z,3.53
2022-09-16T19:09:32.248Z,3.80
2022-09-16T19:14:35.621Z,4.47
2022-09-16T19:19:38.888Z,4.13
2022-09-16T19:24:44.622Z,3.90
2022-09-16T19:29:52.268Z,4.13
2022-09-16T19:34:55.337Z,4.20
2022-09-16T19:40:00.016Z,4.53
2022-09-16T19:45:03.175Z,4.60
2022-09-16T19:50:07.959Z,4.63
2022-09-16T19:55:12.494Z,4.40
2022-09-16T20:00:16.490Z,4.63
2022-09-16T20:05:19.621Z,4.43
2022-09-16T20:10:25.137Z,4.43
2022-09-16T20:15:28.402Z,3.90
2022-09-16T20:20:31.547Z,3.40
2022-09-16T20:25:37.621Z,3.97
2022-09-16T20:30:40.972Z,3.97
2022-09-16T20:35:44.078Z,4.67
2022-09-16T20:40:49.092Z,4.53
2022-09-16T20:45:52.244Z,5.17
2022-09-16T20:50:55.454Z,4.43
2022-09-16T20:56:03.373Z,3.60
2022-09-16T21:01:08.329Z,3.97
2022-09-16T21:06:14.602Z,3.97
2022-09-16T21:11:20.846Z,3.70
2022-09-16T21:16:24.858Z,3.50
2022-09-16T21:21:29.811Z,3.50
2022-09-16T21:26:35.629Z,2.80
2022-09-16T21:31:40.963Z,2.30
2022-09-16T21:36:45.735Z,2.10
2022-09-16T21:41:50.493Z,1.80
2022-09-16T21:46:53.575Z,1.60
2022-09-16T21:51:58.869Z,1.70
2022-09-16T21:57:03.513Z,1.57
2022-09-16T22:02:11.968Z,1.63
2022-09-16T22:07:15.440Z,1.40
2022-09-16T22:12:20.951Z,1.80
2022-09-16T22:17:25.050Z,1.70
2022-09-16T22:22:28.265Z,1.40
2022-09-16T22:27:35.694Z,1.20
2022-09-16T22:32:41.036Z,1.40
2022-09-16T22:37:44.442Z,1.50
2022-09-16T22:42:48.941Z,1.30
2022-09-16T22:47:52.032Z,1.60
2022-09-16T22:52:55.108Z,1.70
2022-09-16T22:57:59.536Z,1.50
2022-09-16T23:03:02.654Z,1.60
2022-09-16T23:08:05.773Z,1.37
2022-09-16T23:13:13.645Z,1.30
2022-09-16T23:18:18.755Z,1.37
2022-09-16T23:23:23.196Z,1.10
2022-09-16T23:28:27.922Z,1.30
2022-09-16T23:33:31.018Z,1.00
2022-09-16T23:38:36.213Z,1.07
2022-09-16T23:43:41.642Z,1.20
2022-09-16T23:48:45.370Z,1.10
2022-09-16T23:53:48.741Z,1.07
2022-09-16T23:58:53.544Z,0.93
